KIAD

Washington Dulles International Airport

Washington, Virginia, USA
METAR KIAD 150252Z 23004KT 10SM BKN110 BKN170 22/20 A2998 RMK AO2 SLP151 T02170200 51012
Observed Flight Rules
Aug-15 @ 02:52 UTC (43 minutes ago) Visual Flight Rules
Wind Visibility Clouds
230° at 4 knots 10 miles
  • Broken at 11,000' AGL
  • Broken at 17,000' AGL
Temperatures Readings
Current 22°C / 72°F
Dewpoint 20°C / 68°F
Humidity 88%
Altimeter 29.98" Hg
Pressure 1015.1 hPa
Elevation 93
METAR KIAD 150252Z 23004KT 10SM BKN110 BKN170 22/20 A2998 RMK AO2 SLP151 T02170200 51012
Observed Flight Rules
Aug-15 @ 02:52 UTC
(43 minutes ago)
VFR
Wind Visibility
230° at 4 knots 10 miles
Clouds
  • Broken at 11,000' AGL
  • Broken at 17,000' AGL
Temperature Dewpoint
22°C / 72°F 20°C / 68°F
Humidity Altimeter Pressure
88% 29.98" Hg 1015.1 hPa